Latest Coastal Weather Observations for Double Island Point

IDQ60701

Issued at 8:25 pm EST Thursday 2 October 2014 (issued every 10 minutes, with the page automatically refreshed every 10 minutes)

About coastal observations | Map of coastal stations | Coastal observations for QLD | Marine services | Other Formats
Station Details ID: 040068 Name: DOUBLE ISLAND POINT LIGHTHOUSE Lat: -25.93 Lon: 153.19 Height: 95.64 m
Data from the previous 72 hours. | See also: Recent months at Double Island Point
Date/Time
EST
Temp

°C
Wind Pressure Rain
since 9am
mm
Weather Cloud Vis
km
Sea
Height
m
Swell
Dir
 
Speed
knots
Gust
knots
hPa Trend Height
m
Period
s
Dir
02/08:00pm 18.5 E 15 17 1020.5 - 0.0 - - - - - - -
02/07:30pm 18.6 E 15 18 1020.3 - 0.0 - - - - - - -
02/07:00pm 18.5 E 16 19 1020.2 - 0.0 - - - - - - -
02/06:30pm 18.7 E 15 18 1020.1 - 0.0 - - - - - - -
02/06:00pm 18.7 E 17 20 1019.8 - 0.0 - - - - - - -
02/05:30pm 18.9 E 16 19 1019.6 - 0.0 - - - - - - -
02/05:00pm 19.4 ESE 17 20 1019.5 - 0.0 - - - - - - -
02/04:30pm 19.7 ESE 17 20 1019.6 - 0.0 - - - - - - -
02/04:00pm 19.7 SE 18 20 1019.3 - 0.0 - - - - - - -
02/03:30pm 20.1 SE 18 21 1019.0 - 0.0 - - - - - - -
02/03:00pm 19.8 SE 17 20 1019.3 - 0.0 - - - - - - -
02/02:30pm 19.6 SE 18 21 1019.3 - 0.0 - - - - - - -
02/02:00pm 19.9 SE 19 22 1019.4 - 0.0 - - - - - - -
02/01:30pm 20.0 SE 19 22 1019.5 - 0.0 - - - - - - -
02/01:00pm 20.1 SE 19 22 1019.7 - 0.0 - - - - - - -
02/12:30pm 20.3 SE 18 22 1019.9 - 0.0 - - - - - - -
02/12:00pm 20.9 SE 20 23 1020.1 - 0.0 - - - - - - -
02/11:30am 21.1 SE 21 25 1020.3 - 0.0 - - - - - - -
02/11:00am 20.6 SE 20 24 1020.7 - 0.0 - - - - - - -
02/10:30am 20.3 SE 21 24 1021.0 - 0.0 - - - - - - -
02/10:00am 20.3 SE 21 25 1021.0 - 0.0 - - - - - - -
02/09:30am 19.9 SE 23 27 1021.0 - 0.0 - - - - - - -
02/09:00am 20.3 ESE 23 27 1021.1 - 0.0 - - - - - - -
02/08:30am 20.0 ESE 25 29 1020.8 - 0.0 - - - - - - -
02/08:00am 19.8 ESE 24 29 1020.6 - 0.0 - - - - - - -
02/07:30am 19.6 ESE 24 30 1020.1 - 0.0 - - - - - - -
02/07:00am 19.4 ESE 28 33 1019.8 - 0.0 - - - - - - -
02/06:30am 19.5 ESE 26 31 1019.5 - 0.0 - - - - - - -
02/06:00am 19.4 ESE 28 32 1019.0 - 0.0 - - - - - - -
02/05:30am 19.4 ESE 28 33 1018.7 - 0.0 - - - - - - -
02/05:00am 19.5 ESE 27 33 1018.2 - 0.0 - - - - - - -
02/04:30am 19.5 ESE 30 35 1017.6 - 0.0 - - - - - - -
02/04:00am 19.5 SE 32 37 1017.3 - 0.0 - - - - - - -
02/03:30am 19.6 SE 34 40 1016.9 - 0.0 - - - - - - -
02/03:00am 19.5 SE 35 40 1016.5 - 0.0 - - - - - - -
02/02:30am 19.5 SE 37 41 1016.3 - 0.0 - - - - - - -
02/02:00am 20.0 SE 38 42 1016.2 - 0.0 - - - - - - -
02/01:30am 20.1 SE 37 43 1016.3 - 0.0 - - - - - - -
02/01:00am 20.1 SSE 38 45 1016.2 - 0.0 - - - - - - -
02/12:30am 20.1 SSE 41 46 1015.8 - 0.0 - - - - - - -
02/12:00am 20.3 SSE 39 49 1015.5 - 0.0 - - - - - - -
 
Date/Time
EST
Temp

°C
Wind Pressure Rain
since 9am
mm
Weather Cloud Vis
km
Sea
Height
m
Swell
Dir
 
Speed
knots
Gust
knots
hPa Trend Height
m
Period
s
Dir
01/11:47pm 20.3 SSE 38 50 1015.4 - 0.0 - - - - - - -
01/11:30pm 20.3 SSE 37 46 1015.4 - 0.0 - - - - - - -
01/11:17pm 20.4 S 32 42 1015.7 - 0.0 - - - - - - -
01/11:00pm 20.4 S 27 35 1016.1 - 0.0 - - - - - - -
01/10:43pm 20.4 S 15 29 1016.5 - 0.0 - - - - - - -
01/10:30pm 19.8 SSW 11 17 1016.8 - 0.0 - - - - - - -
01/10:00pm 20.0 WSW 14 19 1016.4 - 0.0 - - - - - - -
01/09:30pm 20.2 WNW 19 25 1014.8 - 0.0 - - - - - - -
01/09:00pm 20.5 NW 19 23 1014.3 - 0.0 - - - - - - -
01/08:30pm 20.4 NW 16 19 1014.2 - 0.0 - - - - - - -
01/08:00pm 20.4 NW 16 19 1014.1 - 0.0 - - - - - - -
01/07:30pm 20.5 NW 15 18 1014.4 - 0.0 - - - - - - -
01/07:00pm 20.5 NNW 18 21 1014.0 - 0.0 - - - - - - -
01/06:30pm 20.8 NNW 11 16 1013.5 - 0.0 - - - - - - -
01/06:00pm 21.1 NNW 11 17 1013.4 - 0.0 - - - - - - -
01/05:30pm 21.8 N 8 11 1013.3 - 0.0 - - - - - - -
01/05:00pm 22.8 N 8 10 1013.2 - 0.0 - - - - - - -
01/04:30pm 23.8 N 6 8 1013.2 - 0.0 - - - - - - -
01/04:00pm 24.5 N 6 9 1013.3 - 0.0 - - - - - - -
01/03:30pm 24.8 N 6 9 1013.3 - 0.0 - - - - - - -
01/03:00pm 24.6 N 6 10 1013.4 - 0.0 - - - - - - -
01/02:30pm 24.6 N 7 13 1013.6 - 0.0 - - - - - - -
01/02:00pm 24.6 N 9 13 1013.7 - 0.0 - - - - - - -
01/01:30pm 24.4 N 8 17 1014.2 - 0.0 - - - - - - -
01/01:00pm 24.8 N 7 14 1014.9 - 0.0 - - - - - - -
01/12:30pm 25.9 N 7 10 1015.5 - 0.0 - - - - - - -
01/12:00pm 27.5 N 5 7 1016.3 - 0.0 - - - - - - -
01/11:30am 26.0 NNW 13 15 1017.1 - 0.0 - - - - - - -
01/11:00am 24.7 NNW 15 18 1017.2 - 0.0 - - - - - - -
01/10:30am 23.9 NNW 18 22 1017.2 - 0.0 - - - - - - -
01/10:00am 22.8 NNW 19 23 1017.7 - 0.0 - - - - - - -
01/09:30am 21.8 NNW 20 25 1018.1 - 0.0 - - - - - - -
01/09:00am 21.1 NNW 18 24 1018.3 - 0.0 - - - - - - -
01/08:30am 20.1 NW 17 21 1018.4 - 0.0 - - - - - - -
01/08:00am 19.3 NNW 17 21 1018.4 - 0.0 - - - - - - -
01/07:30am 18.9 NNW 16 21 1018.2 - 0.0 - - - - - - -
01/07:00am 18.8 NNW 15 20 1018.0 - 0.0 - - - - - - -
01/06:30am 18.1 NNW 15 19 1017.8 - 0.0 - - - - - - -
01/06:00am 17.9 NNW 15 18 1017.9 - 0.0 - - - - - - -
01/05:30am 17.4 NNW 13 16 1017.8 - 0.0 - - - - - - -
01/05:00am 17.8 NNW 13 16 1017.7 - 0.0 - - - - - - -
01/04:30am 18.1 NNW 14 18 1017.6 - 0.0 - - - - - - -
01/04:00am 18.2 NNW 12 17 1017.5 - 0.0 - - - - - - -
01/03:30am 18.3 NNW 13 19 1017.4 - 0.0 - - - - - - -
01/03:00am 18.5 NNW 12 17 1017.5 - 0.0 - - - - - - -
01/02:30am 18.7 NNW 11 18 1017.6 - 0.0 - - - - - - -
01/02:00am 18.7 NNW 12 19 1017.9 - 0.0 - - - - - - -
01/01:30am 18.8 N 9 16 1018.2 - 0.0 - - - - - - -
01/01:00am 18.8 N 9 14 1018.6 - 0.0 - - - - - - -
01/12:30am 18.9 NNW 11 18 1018.6 - 0.0 - - - - - - -
01/12:00am 19.0 NNW 14 21 1018.7 - 0.0 - - - - - - -
 
Date/Time
EST
Temp

°C
Wind Pressure Rain
since 9am
mm
Weather Cloud Vis
km
Sea
Height
m
Swell
Dir
 
Speed
knots
Gust
knots
hPa Trend Height
m
Period
s
Dir
30/11:30pm 19.0 NNW 15 20 1019.0 - 0.0 - - - - - - -
30/11:00pm 19.1 NNW 14 20 1019.0 - 0.0 - - - - - - -
30/10:30pm 19.1 NNW 12 20 1019.1 - 0.0 - - - - - - -
30/10:00pm 19.2 NNW 11 18 1019.1 - 0.0 - - - - - - -
30/09:30pm 19.2 N 9 16 1019.2 - 0.0 - - - - - - -
30/09:00pm 19.3 N 8 12 1019.2 - 0.0 - - - - - - -
30/08:30pm 19.4 N 8 13 1019.3 - 0.0 - - - - - - -
30/08:00pm 19.6 N 8 13 1019.1 - 0.0 - - - - - - -
30/07:30pm 20.1 N 9 16 1018.7 - 0.0 - - - - - - -
30/07:00pm 20.2 N 12 20 1018.4 - 0.0 - - - - - - -
30/06:30pm 20.3 N 13 23 1018.1 - 0.0 - - - - - - -
30/06:00pm 20.5 N 16 23 1017.8 - 0.0 - - - - - - -
30/05:30pm 20.8 N 16 22 1017.6 - 0.0 - - - - - - -
30/05:00pm 21.5 N 18 23 1017.5 - 0.0 - - - - - - -
30/04:30pm 22.3 N 18 22 1017.6 - 0.0 - - - - - - -
30/04:00pm 22.8 N 18 21 1017.5 - 0.0 - - - - - - -
30/03:30pm 23.2 N 17 19 1017.6 - 0.0 - - - - - - -
30/03:00pm 23.4 N 16 19 1017.7 - 0.0 - - - - - - -
30/02:30pm 24.1 N 11 16 1018.1 - 0.0 - - - - - - -
30/02:00pm 24.2 N 11 15 1018.3 - 0.0 - - - - - - -
30/01:30pm 24.8 N 11 15 1018.8 - 0.0 - - - - - - -
30/01:00pm 24.8 N 7 13 1019.1 - 0.0 - - - - - - -
30/12:30pm 25.2 N 8 13 1019.5 - 0.0 - - - - - - -
30/12:00pm 24.9 N 7 12 1019.8 - 0.0 - - - - - - -
30/11:30am 25.1 N 6 10 1020.3 - 0.0 - - - - - - -
30/11:00am 25.1 N 5 8 1020.7 - 0.0 - - - - - - -
30/10:30am 23.9 N 6 8 1021.1 - 0.0 - - - - - - -
30/10:00am 22.9 NNW 7 11 1021.4 - 0.0 - - - - - - -
30/09:30am 23.3 N 6 10 1021.5 - 0.0 - - - - - - -
30/09:00am 21.9 NNW 8 11 1021.5 - 0.0 - - - - - - -
30/08:30am 20.9 NNW 8 12 1021.4 - 0.0 - - - - - - -
30/08:00am 20.2 NNW 8 10 1021.3 - 0.0 - - - - - - -
30/07:30am 19.8 NNW 7 9 1021.2 - 0.0 - - - - - - -
30/07:00am 18.9 NNW 8 10 1021.1 - 0.0 - - - - - - -
30/06:30am 18.3 NNW 8 10 1020.6 - 0.0 - - - - - - -
30/06:00am 17.8 NW 9 11 1020.2 - 0.0 - - - - - - -
30/05:30am 17.5 NNW 9 11 1019.9 - 0.0 - - - - - - -
30/05:00am 17.4 NNW 9 10 1019.7 - 0.0 - - - - - - -
30/04:30am 17.5 NW 9 10 1019.5 - 0.0 - - - - - - -
30/04:00am 17.8 NW 9 11 1019.2 - 0.0 - - - - - - -
30/03:30am 17.7 NW 10 11 1019.1 - 0.0 - - - - - - -
30/03:00am 17.7 NW 11 13 1019.0 - 0.0 - - - - - - -
30/02:30am 17.6 NW 11 13 1019.0 - 0.0 - - - - - - -
30/02:00am 17.8 NW 13 15 1019.1 - 0.0 - - - - - - -
30/01:30am 17.9 NW 12 15 1019.2 - 0.0 - - - - - - -
30/01:00am 18.0 NW 11 13 1019.4 - 0.0 - - - - - - -
30/12:30am 18.2 NW 12 14 1019.6 - 0.0 - - - - - - -
30/12:00am 18.3 NW 11 13 1019.7 - 0.0 - - - - - - -
 
Date/Time
EST
Temp

°C
Wind Pressure Rain
since 9am
mm
Weather Cloud Vis
km
Sea
Height
m
Swell
Dir
 
Speed
knots
Gust
knots
hPa Trend Height
m
Period
s
Dir
29/11:30pm 18.5 NW 10 12 1020.0 - 0.0 - - - - - - -
29/11:00pm 18.8 N 5 7 1020.1 - 0.0 - - - - - - -
29/10:30pm 18.9 N 6 11 1020.2 - 0.0 - - - - - - -
29/10:00pm 18.9 N 6 12 1020.1 - 0.0 - - - - - - -
29/09:30pm 19.1 N 7 13 1020.0 - 0.0 - - - - - - -
29/09:00pm 19.1 N 12 15 1020.0 - 0.0 - - - - - - -
29/08:30pm 19.1 NNE 13 15 1020.0 - 0.0 - - - - - - -

Other Formats:

Comma delimited format used in spreadsheet applications
http://www.bom.gov.au/fwo/IDQ60701/IDQ60701.94584.axf

JavaScript Object Notation format (JSON) in row-major order
http://www.bom.gov.au/fwo/IDQ60701/IDQ60701.94584.json